Main page
METAR-TAF:

METAR-TAF

Airports :

Alderney Airport

Alderney,

latitude: 49-43N, longitude: 002-12W, elevation: 71 m

Current weather observation

The report was made 6 hours and 38 minutes ago, at 17:20 UTC
Wind 18 kt from the West/Southwest
Temperature 14°C
Humidity 88%
Pressure 1019 hPa
Visibility 10 km or more
Few clouds at a height of 200 ft
Broken clouds at a height of 400 ft

METAR: EGJA 251720Z 25018KT 9999 FEW002 BKN004 14/12 Q1019

Time: 00:58 (23:58 UTC)

Forecast

The report was made 9 hours and 55 minutes ago, at 14:03 UTC
Forecast valid from 25 at 15 UTC to 26 at 00 UTC
Wind 16 kt from the West
Visibility 10 km or more
Few clouds at a height of 400 ft
Scattered clouds at a height of 800 ft
Probability 40% :
Temporary
from 25 at 15 UTC to 26 at 00 UTC
Visibility: 4000 m
Broken clouds at a height of 300 ft
light rain, drizzle

TAF: EGJA 251403Z 2515/2600 26016KT 9999 FEW004 SCT008 PROB40 TEMPO 2515/2600 4000 -RADZ BKN003

Weather observations and forecasts of more than 4000 airports (METAR and TAF reports).

The available stations are represented by yellow and red dots on the map.

Hover mouse over dot to see the name of the station.

Then click to see weather observations and forecasts.

To change the map : click on the green buttons with a black cross to zoom in, on the green button with a dash to zoom out, or on the green arrows for adjacent maps.


METAR-TAF: